sensor_id;sensor_type;location;lat;lon;timestamp;P1;durP1;ratioP1;P2;durP2;ratioP2
6638;SDS011;3355;52.882;8.430;2022-12-26T00:05:11;17.83;;;10.60;;
6638;SDS011;3355;52.882;8.430;2022-12-26T00:07:44;18.00;;;10.20;;
6638;SDS011;3355;52.882;8.430;2022-12-26T00:10:12;22.43;;;11.33;;
6638;SDS011;3355;52.882;8.430;2022-12-26T00:12:39;18.50;;;9.77;;
6638;SDS011;3355;52.882;8.430;2022-12-26T00:15:06;16.03;;;9.77;;
6638;SDS011;3355;52.882;8.430;2022-12-26T00:17:32;17.53;;;9.60;;
6638;SDS011;3355;52.882;8.430;2022-12-26T00:19:59;16.43;;;10.30;;
6638;SDS011;3355;52.882;8.430;2022-12-26T00:22:25;18.97;;;11.00;;
6638;SDS011;3355;52.882;8.430;2022-12-26T00:24:54;18.00;;;10.87;;
6638;SDS011;3355;52.882;8.430;2022-12-26T00:27:21;15.90;;;9.33;;
6638;SDS011;3355;52.882;8.430;2022-12-26T00:29:49;14.80;;;9.37;;
6638;SDS011;3355;52.882;8.430;2022-12-26T00:32:16;15.33;;;8.90;;
6638;SDS011;3355;52.882;8.430;2022-12-26T00:34:43;14.70;;;9.30;;
6638;SDS011;3355;52.882;8.430;2022-12-26T00:37:11;16.70;;;10.00;;
6638;SDS011;3355;52.882;8.430;2022-12-26T00:39:37;12.77;;;8.80;;
6638;SDS011;3355;52.882;8.430;2022-12-26T00:42:05;14.90;;;9.10;;
6638;SDS011;3355;52.882;8.430;2022-12-26T00:44:32;15.53;;;8.80;;
6638;SDS011;3355;52.882;8.430;2022-12-26T00:46:58;14.40;;;9.33;;
6638;SDS011;3355;52.882;8.430;2022-12-26T00:49:25;14.80;;;9.03;;
6638;SDS011;3355;52.882;8.430;2022-12-26T00:51:52;13.43;;;8.67;;
6638;SDS011;3355;52.882;8.430;2022-12-26T00:54:19;15.33;;;9.50;;
6638;SDS011;3355;52.882;8.430;2022-12-26T00:56:46;13.83;;;8.67;;
6638;SDS011;3355;52.882;8.430;2022-12-26T00:59:15;12.47;;;8.37;;
6638;SDS011;3355;52.882;8.430;2022-12-26T01:01:45;13.23;;;9.40;;
6638;SDS011;3355;52.882;8.430;2022-12-26T01:04:13;11.53;;;8.17;;
6638;SDS011;3355;52.882;8.430;2022-12-26T01:06:41;13.30;;;7.00;;
6638;SDS011;3355;52.882;8.430;2022-12-26T01:09:09;15.20;;;9.70;;
6638;SDS011;3355;52.882;8.430;2022-12-26T01:11:39;11.50;;;8.77;;
6638;SDS011;3355;52.882;8.430;2022-12-26T01:14:08;15.43;;;9.33;;
6638;SDS011;3355;52.882;8.430;2022-12-26T01:16:38;12.43;;;7.53;;
6638;SDS011;3355;52.882;8.430;2022-12-26T01:19:07;13.53;;;8.23;;
6638;SDS011;3355;52.882;8.430;2022-12-26T01:21:35;11.83;;;7.90;;
6638;SDS011;3355;52.882;8.430;2022-12-26T01:24:03;12.10;;;7.67;;
6638;SDS011;3355;52.882;8.430;2022-12-26T01:26:31;10.33;;;7.03;;
6638;SDS011;3355;52.882;8.430;2022-12-26T01:28:59;12.60;;;8.43;;
6638;SDS011;3355;52.882;8.430;2022-12-26T01:31:27;11.53;;;7.40;;
6638;SDS011;3355;52.882;8.430;2022-12-26T01:33:56;11.67;;;7.23;;
6638;SDS011;3355;52.882;8.430;2022-12-26T01:36:23;12.40;;;8.10;;
6638;SDS011;3355;52.882;8.430;2022-12-26T01:38:51;12.00;;;8.30;;
6638;SDS011;3355;52.882;8.430;2022-12-26T01:41:18;11.43;;;7.73;;
6638;SDS011;3355;52.882;8.430;2022-12-26T01:43:50;10.20;;;6.80;;
6638;SDS011;3355;52.882;8.430;2022-12-26T01:46:20;11.83;;;6.97;;
6638;SDS011;3355;52.882;8.430;2022-12-26T01:48:50;11.93;;;9.07;;
6638;SDS011;3355;52.882;8.430;2022-12-26T01:51:20;12.40;;;8.70;;
6638;SDS011;3355;52.882;8.430;2022-12-26T01:53:49;12.10;;;7.87;;
6638;SDS011;3355;52.882;8.430;2022-12-26T01:56:19;13.00;;;8.47;;
6638;SDS011;3355;52.882;8.430;2022-12-26T01:58:50;11.20;;;7.90;;
6638;SDS011;3355;52.882;8.430;2022-12-26T02:01:19;12.23;;;8.40;;
6638;SDS011;3355;52.882;8.430;2022-12-26T02:03:48;13.40;;;9.00;;
6638;SDS011;3355;52.882;8.430;2022-12-26T02:06:45;13.20;;;8.20;;
6638;SDS011;3355;52.882;8.430;2022-12-26T02:09:13;12.67;;;8.90;;
6638;SDS011;3355;52.882;8.430;2022-12-26T02:11:41;17.03;;;8.30;;
6638;SDS011;3355;52.882;8.430;2022-12-26T02:14:10;11.67;;;7.50;;
6638;SDS011;3355;52.882;8.430;2022-12-26T02:16:38;13.40;;;8.00;;
6638;SDS011;3355;52.882;8.430;2022-12-26T02:19:08;13.73;;;8.70;;
6638;SDS011;3355;52.882;8.430;2022-12-26T02:21:51;13.00;;;8.47;;
6638;SDS011;3355;52.882;8.430;2022-12-26T02:24:40;12.33;;;8.13;;
6638;SDS011;3355;52.882;8.430;2022-12-26T02:27:30;14.60;;;10.00;;
6638;SDS011;3355;52.882;8.430;2022-12-26T02:30:05;13.43;;;8.97;;
6638;SDS011;3355;52.882;8.430;2022-12-26T02:32:52;12.77;;;8.87;;
6638;SDS011;3355;52.882;8.430;2022-12-26T02:35:34;13.23;;;9.03;;
6638;SDS011;3355;52.882;8.430;2022-12-26T02:38:11;12.63;;;8.50;;
6638;SDS011;3355;52.882;8.430;2022-12-26T02:40:48;14.57;;;8.77;;
6638;SDS011;3355;52.882;8.430;2022-12-26T02:43:21;12.97;;;8.27;;
6638;SDS011;3355;52.882;8.430;2022-12-26T02:45:53;13.97;;;9.23;;
6638;SDS011;3355;52.882;8.430;2022-12-26T02:48:45;12.87;;;7.90;;
6638;SDS011;3355;52.882;8.430;2022-12-26T02:51:19;13.37;;;8.53;;
6638;SDS011;3355;52.882;8.430;2022-12-26T02:54:08;12.00;;;7.90;;
6638;SDS011;3355;52.882;8.430;2022-12-26T02:56:58;12.27;;;8.70;;
6638;SDS011;3355;52.882;8.430;2022-12-26T02:59:47;11.87;;;8.37;;
6638;SDS011;3355;52.882;8.430;2022-12-26T03:02:37;12.90;;;7.67;;
6638;SDS011;3355;52.882;8.430;2022-12-26T03:05:26;12.50;;;8.53;;
6638;SDS011;3355;52.882;8.430;2022-12-26T03:08:15;11.87;;;8.00;;
6638;SDS011;3355;52.882;8.430;2022-12-26T03:11:02;13.67;;;8.83;;
6638;SDS011;3355;52.882;8.430;2022-12-26T03:13:47;17.80;;;9.23;;
6638;SDS011;3355;52.882;8.430;2022-12-26T03:16:16;12.83;;;8.07;;
6638;SDS011;3355;52.882;8.430;2022-12-26T03:19:02;12.73;;;8.80;;
6638;SDS011;3355;52.882;8.430;2022-12-26T03:21:35;11.00;;;7.30;;
6638;SDS011;3355;52.882;8.430;2022-12-26T03:24:05;12.37;;;8.67;;
6638;SDS011;3355;52.882;8.430;2022-12-26T03:26:34;13.67;;;8.87;;
6638;SDS011;3355;52.882;8.430;2022-12-26T03:29:05;14.83;;;8.83;;
6638;SDS011;3355;52.882;8.430;2022-12-26T03:31:50;15.67;;;9.47;;
6638;SDS011;3355;52.882;8.430;2022-12-26T03:34:17;15.37;;;9.90;;
6638;SDS011;3355;52.882;8.430;2022-12-26T03:36:49;15.00;;;10.53;;
6638;SDS011;3355;52.882;8.430;2022-12-26T03:39:24;17.50;;;11.60;;
6638;SDS011;3355;52.882;8.430;2022-12-26T03:42:20;15.17;;;10.70;;
6638;SDS011;3355;52.882;8.430;2022-12-26T03:45:09;21.20;;;12.03;;
6638;SDS011;3355;52.882;8.430;2022-12-26T03:48:03;17.27;;;11.03;;
6638;SDS011;3355;52.882;8.430;2022-12-26T03:50:51;17.20;;;10.83;;
6638;SDS011;3355;52.882;8.430;2022-12-26T03:53:41;19.97;;;12.03;;
6638;SDS011;3355;52.882;8.430;2022-12-26T03:56:32;18.00;;;12.10;;
6638;SDS011;3355;52.882;8.430;2022-12-26T03:59:19;21.83;;;12.37;;
6638;SDS011;3355;52.882;8.430;2022-12-26T04:09:51;17.77;;;12.20;;
6638;SDS011;3355;52.882;8.430;2022-12-26T04:12:42;21.63;;;12.03;;
6638;SDS011;3355;52.882;8.430;2022-12-26T04:15:32;20.10;;;13.20;;
6638;SDS011;3355;52.882;8.430;2022-12-26T04:18:25;19.03;;;12.40;;
6638;SDS011;3355;52.882;8.430;2022-12-26T04:21:13;22.90;;;15.00;;
6638;SDS011;3355;52.882;8.430;2022-12-26T04:24:06;20.37;;;13.43;;
6638;SDS011;3355;52.882;8.430;2022-12-26T04:30:34;21.53;;;13.67;;
6638;SDS011;3355;52.882;8.430;2022-12-26T04:33:39;16.77;;;12.03;;
6638;SDS011;3355;52.882;8.430;2022-12-26T04:36:36;22.13;;;14.60;;
6638;SDS011;3355;52.882;8.430;2022-12-26T04:39:47;22.63;;;14.33;;
6638;SDS011;3355;52.882;8.430;2022-12-26T04:42:35;17.70;;;12.87;;
6638;SDS011;3355;52.882;8.430;2022-12-26T04:45:21;23.50;;;14.03;;
6638;SDS011;3355;52.882;8.430;2022-12-26T04:47:50;22.13;;;13.10;;
6638;SDS011;3355;52.882;8.430;2022-12-26T04:50:34;18.77;;;12.43;;
6638;SDS011;3355;52.882;8.430;2022-12-26T04:53:01;16.70;;;12.13;;
6638;SDS011;3355;52.882;8.430;2022-12-26T04:55:28;22.27;;;13.17;;
6638;SDS011;3355;52.882;8.430;2022-12-26T04:57:57;18.60;;;13.07;;
6638;SDS011;3355;52.882;8.430;2022-12-26T05:00:24;22.03;;;12.53;;
6638;SDS011;3355;52.882;8.430;2022-12-26T05:02:56;21.23;;;13.27;;
6638;SDS011;3355;52.882;8.430;2022-12-26T05:05:42;19.13;;;11.63;;
6638;SDS011;3355;52.882;8.430;2022-12-26T05:08:30;20.00;;;12.07;;
6638;SDS011;3355;52.882;8.430;2022-12-26T05:11:18;18.27;;;11.80;;
6638;SDS011;3355;52.882;8.430;2022-12-26T05:13:46;21.70;;;13.20;;
6638;SDS011;3355;52.882;8.430;2022-12-26T05:16:12;22.03;;;12.07;;
6638;SDS011;3355;52.882;8.430;2022-12-26T05:18:58;20.47;;;12.23;;
6638;SDS011;3355;52.882;8.430;2022-12-26T05:21:42;19.00;;;11.60;;
6638;SDS011;3355;52.882;8.430;2022-12-26T05:24:27;20.20;;;12.80;;
6638;SDS011;3355;52.882;8.430;2022-12-26T05:27:16;20.53;;;11.60;;
6638;SDS011;3355;52.882;8.430;2022-12-26T05:30:01;20.60;;;13.30;;
6638;SDS011;3355;52.882;8.430;2022-12-26T05:32:28;20.50;;;12.90;;
6638;SDS011;3355;52.882;8.430;2022-12-26T05:35:14;19.10;;;12.30;;
6638;SDS011;3355;52.882;8.430;2022-12-26T05:37:41;24.10;;;14.17;;
6638;SDS011;3355;52.882;8.430;2022-12-26T05:40:08;20.60;;;11.90;;
6638;SDS011;3355;52.882;8.430;2022-12-26T05:42:35;21.60;;;12.87;;
6638;SDS011;3355;52.882;8.430;2022-12-26T05:45:02;22.97;;;13.40;;
6638;SDS011;3355;52.882;8.430;2022-12-26T05:47:29;20.10;;;12.67;;
6638;SDS011;3355;52.882;8.430;2022-12-26T05:49:56;18.20;;;12.50;;
6638;SDS011;3355;52.882;8.430;2022-12-26T05:52:27;20.67;;;13.07;;
6638;SDS011;3355;52.882;8.430;2022-12-26T05:54:53;21.13;;;12.03;;
6638;SDS011;3355;52.882;8.430;2022-12-26T05:57:20;20.60;;;12.70;;
6638;SDS011;3355;52.882;8.430;2022-12-26T05:59:47;22.00;;;13.03;;
6638;SDS011;3355;52.882;8.430;2022-12-26T06:02:16;17.93;;;13.13;;
6638;SDS011;3355;52.882;8.430;2022-12-26T06:04:43;20.60;;;12.83;;
6638;SDS011;3355;52.882;8.430;2022-12-26T06:07:18;17.63;;;10.73;;
6638;SDS011;3355;52.882;8.430;2022-12-26T06:09:46;23.00;;;12.63;;
6638;SDS011;3355;52.882;8.430;2022-12-26T06:12:13;18.97;;;13.17;;
6638;SDS011;3355;52.882;8.430;2022-12-26T06:14:40;16.10;;;11.83;;
6638;SDS011;3355;52.882;8.430;2022-12-26T06:17:12;17.77;;;11.60;;
6638;SDS011;3355;52.882;8.430;2022-12-26T06:19:42;16.90;;;11.50;;
6638;SDS011;3355;52.882;8.430;2022-12-26T06:22:23;18.27;;;11.60;;
6638;SDS011;3355;52.882;8.430;2022-12-26T06:28:34;18.57;;;10.67;;
6638;SDS011;3355;52.882;8.430;2022-12-26T06:31:25;17.80;;;10.57;;
6638;SDS011;3355;52.882;8.430;2022-12-26T06:34:14;20.40;;;11.60;;
6638;SDS011;3355;52.882;8.430;2022-12-26T06:36:54;20.13;;;11.20;;
6638;SDS011;3355;52.882;8.430;2022-12-26T06:42:56;17.13;;;11.37;;
6638;SDS011;3355;52.882;8.430;2022-12-26T06:53:09;17.27;;;10.70;;
6638;SDS011;3355;52.882;8.430;2022-12-26T06:56:06;18.93;;;11.50;;
6638;SDS011;3355;52.882;8.430;2022-12-26T06:59:05;17.27;;;11.13;;
6638;SDS011;3355;52.882;8.430;2022-12-26T07:01:32;19.53;;;11.73;;
6638;SDS011;3355;52.882;8.430;2022-12-26T07:04:00;19.50;;;11.87;;
6638;SDS011;3355;52.882;8.430;2022-12-26T07:06:30;18.17;;;11.27;;
6638;SDS011;3355;52.882;8.430;2022-12-26T07:08:58;17.30;;;11.20;;
6638;SDS011;3355;52.882;8.430;2022-12-26T07:11:27;20.70;;;11.70;;
6638;SDS011;3355;52.882;8.430;2022-12-26T07:13:54;14.60;;;10.20;;
6638;SDS011;3355;52.882;8.430;2022-12-26T07:16:21;17.93;;;11.17;;
6638;SDS011;3355;52.882;8.430;2022-12-26T07:18:50;19.50;;;12.00;;
6638;SDS011;3355;52.882;8.430;2022-12-26T07:21:17;17.10;;;11.17;;
6638;SDS011;3355;52.882;8.430;2022-12-26T07:23:46;17.73;;;10.90;;
6638;SDS011;3355;52.882;8.430;2022-12-26T07:26:13;16.67;;;10.80;;
6638;SDS011;3355;52.882;8.430;2022-12-26T07:28:39;19.53;;;10.50;;
6638;SDS011;3355;52.882;8.430;2022-12-26T07:31:06;16.20;;;10.10;;
6638;SDS011;3355;52.882;8.430;2022-12-26T07:33:33;17.30;;;11.70;;
6638;SDS011;3355;52.882;8.430;2022-12-26T07:36:04;19.20;;;11.03;;
6638;SDS011;3355;52.882;8.430;2022-12-26T08:54:35;20.07;;;11.63;;
6638;SDS011;3355;52.882;8.430;2022-12-26T09:00:06;18.73;;;12.27;;
6638;SDS011;3355;52.882;8.430;2022-12-26T09:06:57;19.43;;;11.80;;
6638;SDS011;3355;52.882;8.430;2022-12-26T09:15:47;17.73;;;10.87;;
6638;SDS011;3355;52.882;8.430;2022-12-26T09:18:15;16.70;;;11.60;;
6638;SDS011;3355;52.882;8.430;2022-12-26T09:21:07;16.07;;;10.80;;
6638;SDS011;3355;52.882;8.430;2022-12-26T09:24:11;15.00;;;10.07;;
6638;SDS011;3355;52.882;8.430;2022-12-26T09:33:16;18.07;;;10.60;;
6638;SDS011;3355;52.882;8.430;2022-12-26T09:38:40;13.40;;;9.90;;
6638;SDS011;3355;52.882;8.430;2022-12-26T09:41:17;15.27;;;10.23;;
6638;SDS011;3355;52.882;8.430;2022-12-26T19:44:49;10.77;;;2.90;;
6638;SDS011;3355;52.882;8.430;2022-12-26T19:47:16;4.97;;;2.27;;
6638;SDS011;3355;52.882;8.430;2022-12-26T19:49:43;3.40;;;1.70;;
6638;SDS011;3355;52.882;8.430;2022-12-26T19:52:10;4.83;;;1.50;;
6638;SDS011;3355;52.882;8.430;2022-12-26T19:54:37;3.87;;;2.20;;
6638;SDS011;3355;52.882;8.430;2022-12-26T19:57:06;9.33;;;2.13;;
6638;SDS011;3355;52.882;8.430;2022-12-26T19:59:33;7.67;;;2.13;;
6638;SDS011;3355;52.882;8.430;2022-12-26T20:02:01;7.10;;;2.93;;
6638;SDS011;3355;52.882;8.430;2022-12-26T20:04:28;4.80;;;1.87;;
6638;SDS011;3355;52.882;8.430;2022-12-26T20:06:57;12.50;;;2.50;;
6638;SDS011;3355;52.882;8.430;2022-12-26T20:53:17;8.03;;;2.23;;
6638;SDS011;3355;52.882;8.430;2022-12-26T20:55:47;5.70;;;1.93;;
6638;SDS011;3355;52.882;8.430;2022-12-26T20:58:16;7.70;;;2.00;;
6638;SDS011;3355;52.882;8.430;2022-12-26T21:00:46;6.77;;;2.40;;
6638;SDS011;3355;52.882;8.430;2022-12-26T21:03:13;7.07;;;2.83;;
6638;SDS011;3355;52.882;8.430;2022-12-26T21:05:48;8.07;;;2.60;;
6638;SDS011;3355;52.882;8.430;2022-12-26T21:08:16;7.03;;;1.60;;
6638;SDS011;3355;52.882;8.430;2022-12-26T21:10:44;9.80;;;2.13;;
6638;SDS011;3355;52.882;8.430;2022-12-26T21:13:12;9.53;;;2.20;;
6638;SDS011;3355;52.882;8.430;2022-12-26T21:15:39;4.00;;;1.67;;
6638;SDS011;3355;52.882;8.430;2022-12-26T21:18:10;5.70;;;2.17;;
6638;SDS011;3355;52.882;8.430;2022-12-26T21:20:40;6.43;;;2.07;;
6638;SDS011;3355;52.882;8.430;2022-12-26T21:23:07;7.20;;;3.03;;
6638;SDS011;3355;52.882;8.430;2022-12-26T21:25:41;8.57;;;2.70;;
6638;SDS011;3355;52.882;8.430;2022-12-26T21:28:08;13.30;;;2.10;;
6638;SDS011;3355;52.882;8.430;2022-12-26T21:30:38;5.40;;;2.37;;
6638;SDS011;3355;52.882;8.430;2022-12-26T21:33:09;6.40;;;1.40;;
6638;SDS011;3355;52.882;8.430;2022-12-26T21:35:36;8.10;;;2.93;;
6638;SDS011;3355;52.882;8.430;2022-12-26T21:38:03;7.40;;;2.40;;
6638;SDS011;3355;52.882;8.430;2022-12-26T21:40:33;3.93;;;1.60;;
6638;SDS011;3355;52.882;8.430;2022-12-26T21:43:02;9.57;;;2.03;;
6638;SDS011;3355;52.882;8.430;2022-12-26T21:45:32;9.10;;;2.90;;
6638;SDS011;3355;52.882;8.430;2022-12-26T21:47:59;4.77;;;1.90;;
6638;SDS011;3355;52.882;8.430;2022-12-26T21:50:26;4.70;;;1.70;;
6638;SDS011;3355;52.882;8.430;2022-12-26T21:52:55;9.20;;;3.30;;
6638;SDS011;3355;52.882;8.430;2022-12-26T22:02:23;6.23;;;1.27;;
6638;SDS011;3355;52.882;8.430;2022-12-26T22:05:09;8.57;;;1.70;;
6638;SDS011;3355;52.882;8.430;2022-12-26T22:07:36;6.03;;;1.73;;
6638;SDS011;3355;52.882;8.430;2022-12-26T22:10:04;3.93;;;1.70;;
6638;SDS011;3355;52.882;8.430;2022-12-26T22:12:31;7.37;;;1.50;;
6638;SDS011;3355;52.882;8.430;2022-12-26T22:15:16;4.40;;;1.67;;
6638;SDS011;3355;52.882;8.430;2022-12-26T22:18:02;8.83;;;2.00;;
6638;SDS011;3355;52.882;8.430;2022-12-26T22:20:29;7.00;;;1.87;;
6638;SDS011;3355;52.882;8.430;2022-12-26T22:22:56;5.20;;;1.70;;
6638;SDS011;3355;52.882;8.430;2022-12-26T22:25:23;4.67;;;1.57;;
6638;SDS011;3355;52.882;8.430;2022-12-26T22:27:50;5.90;;;1.70;;
6638;SDS011;3355;52.882;8.430;2022-12-26T22:30:18;2.90;;;1.30;;
6638;SDS011;3355;52.882;8.430;2022-12-26T22:32:45;6.20;;;1.37;;
6638;SDS011;3355;52.882;8.430;2022-12-26T22:35:14;4.20;;;1.83;;
6638;SDS011;3355;52.882;8.430;2022-12-26T22:37:41;12.17;;;1.90;;
6638;SDS011;3355;52.882;8.430;2022-12-26T22:40:08;6.00;;;2.00;;
6638;SDS011;3355;52.882;8.430;2022-12-26T22:42:37;5.03;;;1.93;;
6638;SDS011;3355;52.882;8.430;2022-12-26T22:45:05;7.17;;;1.40;;
6638;SDS011;3355;52.882;8.430;2022-12-26T22:47:32;4.97;;;1.10;;
6638;SDS011;3355;52.882;8.430;2022-12-26T22:49:59;5.10;;;1.43;;
6638;SDS011;3355;52.882;8.430;2022-12-26T22:52:29;4.60;;;1.77;;
6638;SDS011;3355;52.882;8.430;2022-12-26T22:54:56;6.93;;;1.53;;
6638;SDS011;3355;52.882;8.430;2022-12-26T22:57:23;10.93;;;2.37;;
6638;SDS011;3355;52.882;8.430;2022-12-26T22:59:51;3.27;;;1.40;;
6638;SDS011;3355;52.882;8.430;2022-12-26T23:02:20;3.33;;;1.47;;
6638;SDS011;3355;52.882;8.430;2022-12-26T23:04:47;16.80;;;2.57;;
6638;SDS011;3355;52.882;8.430;2022-12-26T23:07:14;4.37;;;1.40;;
6638;SDS011;3355;52.882;8.430;2022-12-26T23:09:46;6.80;;;1.80;;
6638;SDS011;3355;52.882;8.430;2022-12-26T23:12:13;4.43;;;1.40;;
6638;SDS011;3355;52.882;8.430;2022-12-26T23:14:58;4.33;;;1.63;;
6638;SDS011;3355;52.882;8.430;2022-12-26T23:17:24;4.23;;;1.80;;
6638;SDS011;3355;52.882;8.430;2022-12-26T23:20:09;5.83;;;1.53;;
6638;SDS011;3355;52.882;8.430;2022-12-26T23:22:55;10.93;;;2.27;;
6638;SDS011;3355;52.882;8.430;2022-12-26T23:25:24;6.70;;;2.10;;
6638;SDS011;3355;52.882;8.430;2022-12-26T23:27:51;6.90;;;2.27;;
6638;SDS011;3355;52.882;8.430;2022-12-26T23:30:35;5.07;;;1.90;;
6638;SDS011;3355;52.882;8.430;2022-12-26T23:33:02;4.40;;;1.80;;
6638;SDS011;3355;52.882;8.430;2022-12-26T23:35:29;5.57;;;1.63;;
6638;SDS011;3355;52.882;8.430;2022-12-26T23:37:56;5.67;;;1.97;;
6638;SDS011;3355;52.882;8.430;2022-12-26T23:40:22;7.43;;;2.03;;
6638;SDS011;3355;52.882;8.430;2022-12-26T23:42:51;3.60;;;1.97;;
6638;SDS011;3355;52.882;8.430;2022-12-26T23:45:19;4.47;;;1.60;;
6638;SDS011;3355;52.882;8.430;2022-12-26T23:47:47;3.70;;;1.43;;
6638;SDS011;3355;52.882;8.430;2022-12-26T23:50:14;4.10;;;1.73;;
6638;SDS011;3355;52.882;8.430;2022-12-26T23:52:41;9.13;;;1.90;;
6638;SDS011;3355;52.882;8.430;2022-12-26T23:55:08;5.70;;;1.83;;
6638;SDS011;3355;52.882;8.430;2022-12-26T23:57:37;6.50;;;1.87;;
